Time;durP1;ratioP1;P1;durP2;ratioP2;P2;SDS_P1;SDS_P2;PMS_P1;PMS_P2;Temp;Humidity;BMP_temperature;BMP_pressure;BME280_temperature;BME280_humidity;BME280_pressure;Samples;Min_cycle;Max_cycle;Signal;HPM_P1;HPM_P2
2022/09/10 00:00:18;;;;;;;;;;;18.50;99.90;;;;;;4211955;28;19924;-56
2022/09/10 00:02:20;;;;;;;;;;;18.50;99.90;;;;;;4211729;28;20418;-56
2022/09/10 00:04:22;;;;;;;;;;;18.50;99.90;;;;;;4211879;28;19974;-56
2022/09/10 00:06:26;;;;;;;;;;;18.40;99.90;;;;;;4212374;28;19935;-57
2022/09/10 00:08:29;;;;;;;;;;;18.30;99.90;;;;;;4212304;28;20019;-56
2022/09/10 00:10:36;;;;;;;;;;;18.30;99.90;;;;;;4212024;28;20300;-56
2022/09/10 00:12:38;;;;;;;;;;;18.20;99.90;;;;;;4211836;28;20027;-56
2022/09/10 00:14:40;;;;;;;;;;;17.90;99.90;;;;;;4212199;28;19928;-57
2022/09/10 00:16:42;;;;;;;;;;;18.00;99.90;;;;;;4212076;28;20324;-55
2022/09/10 00:18:45;;;;;;;;;;;18.10;99.90;;;;;;4212284;28;20022;-56
2022/09/10 00:20:51;;;;;;;;;;;18.10;99.90;;;;;;4213785;28;19930;-56
2022/09/10 00:22:53;;;;;;;;;;;18.20;99.90;;;;;;4215399;28;19924;-57
2022/09/10 00:24:58;;;;;;;;;;;18.30;99.90;;;;;;4215268;28;19928;-58
2022/09/10 00:27:00;;;;;;;;;;;18.30;99.90;;;;;;4215186;28;19928;-56
2022/09/10 00:29:02;;;;;;;;;;;18.30;99.90;;;;;;4218209;28;19930;-56
2022/09/10 00:31:04;;;;;;;;;;;18.30;99.90;;;;;;4198465;28;19929;-55
2022/09/10 00:33:07;;;;;;;;;;;18.30;99.90;;;;;;4208263;28;19928;-56
2022/09/10 00:35:08;;;;;;;;;;;18.20;99.90;;;;;;4215142;28;20524;-56
2022/09/10 00:37:10;;;;;;;;;;;18.20;99.90;;;;;;4214788;28;20407;-56
2022/09/10 00:39:14;;;;;;;;;;;18.10;99.90;;;;;;4215144;28;20426;-56
2022/09/10 00:41:17;;;;;;;;;;;18.10;99.90;;;;;;4214788;28;20019;-55
2022/09/10 00:43:20;;;;;;;;;;;18.10;99.90;;;;;;4199425;28;19931;-56
2022/09/10 00:45:26;;;;;;;;;;;18.20;99.90;;;;;;4203735;28;20413;-55
2022/09/10 00:47:31;;;;;;;;;;;18.20;99.90;;;;;;4214151;28;19971;-56
2022/09/10 00:49:40;;;;;;;;;;;18.20;99.90;;;;;;4214683;28;19971;-56
2022/09/10 00:51:42;;;;;;;;;;;18.30;99.90;;;;;;4214360;28;20299;-56
2022/09/10 00:53:44;;;;;;;;;;;18.20;99.90;;;;;;4215035;28;19935;-56
2022/09/10 00:55:49;;;;;;;;;;;18.20;99.90;;;;;;4214173;28;19932;-57
2022/09/10 00:57:53;;;;;;;;;;;18.10;99.90;;;;;;4214540;28;19931;-57
2022/09/10 00:59:58;;;;;;;;;;;18.10;99.90;;;;;;4214722;28;19931;-57
2022/09/10 01:02:02;;;;;;;;;;;18.10;99.90;;;;;;4214609;28;20318;-56
2022/09/10 01:04:05;;;;;;;;;;;18.00;99.90;;;;;;4214529;28;20481;-56
2022/09/10 01:06:07;;;;;;;;;;;17.90;99.90;;;;;;4214618;28;19928;-56
2022/09/10 01:08:13;;;;;;;;;;;17.80;99.90;;;;;;4214339;28;19924;-56
2022/09/10 01:10:19;;;;;;;;;;;17.80;99.90;;;;;;4214237;28;19928;-56
2022/09/10 01:12:26;;;;;;;;;;;17.80;99.90;;;;;;4214224;28;19930;-57
2022/09/10 01:14:36;;;;;;;;;;;17.70;99.90;;;;;;4214285;28;19978;-56
2022/09/10 01:16:38;;;;;;;;;;;17.70;99.90;;;;;;4214141;28;20367;-56
2022/09/10 01:18:46;;;;;;;;;;;17.70;99.90;;;;;;4214061;28;19924;-56
2022/09/10 01:20:59;;;;;;;;;;;17.60;99.90;;;;;;4214054;28;20008;-56
2022/09/10 01:23:02;;;;;;;;;;;17.60;99.90;;;;;;4214097;28;19924;-56
2022/09/10 01:25:10;;;;;;;;;;;17.70;99.90;;;;;;4219499;28;19927;-56
2022/09/10 01:27:28;;;;;;;;;;;17.70;99.90;;;;;;4221582;27;19930;-57
2022/09/10 01:29:41;;;;;;;;;;;17.70;99.90;;;;;;4214315;28;19931;-56
2022/09/10 01:31:55;;;;;;;;;;;17.60;99.90;;;;;;4213985;28;19928;-57
2022/09/10 01:34:02;;;;;;;;;;;17.60;99.90;;;;;;4213757;28;19978;-57
2022/09/10 01:36:12;;;;;;;;;;;17.60;99.90;;;;;;4212401;28;19943;-56
2022/09/10 01:38:27;;;;;;;;;;;17.70;99.90;;;;;;4214121;28;19928;-56
2022/09/10 01:40:30;;;;;;;;;;;17.60;99.90;;;;;;4213688;28;20371;-56
2022/09/10 01:42:32;;;;;;;;;;;17.50;99.90;;;;;;4213754;28;19928;-56
2022/09/10 01:44:44;;;;;;;;;;;17.50;99.90;;;;;;4214077;28;19925;-56
2022/09/10 01:46:53;;;;;;;;;;;17.20;99.90;;;;;;4213114;28;19928;-58
2022/09/10 01:49:01;;;;;;;;;;;17.00;99.90;;;;;;4213735;28;20386;-57
2022/09/10 01:51:08;;;;;;;;;;;17.10;99.90;;;;;;4213894;28;19924;-57
2022/09/10 01:53:18;;;;;;;;;;;17.20;99.90;;;;;;4213334;28;20338;-56
2022/09/10 01:55:20;;;;;;;;;;;17.00;99.90;;;;;;4213476;28;19986;-56
2022/09/10 01:57:41;;;;;;;;;;;17.10;99.90;;;;;;4212162;28;19924;-56
2022/09/10 02:00:01;;;;;;;;;;;17.10;99.90;;;;;;4213371;28;19952;-56
2022/09/10 02:02:13;;;;;;;;;;;17.10;99.90;;;;;;4213244;28;19924;-57
2022/09/10 02:04:16;;;;;;;;;;;17.20;99.90;;;;;;4213222;28;19928;-55
2022/09/10 02:06:21;;;;;;;;;;;17.20;99.90;;;;;;4213152;28;20051;-56
2022/09/10 02:08:25;;;;;;;;;;;17.10;99.90;;;;;;4213344;28;19928;-57
2022/09/10 02:10:27;;;;;;;;;;;17.10;99.90;;;;;;4213772;28;20035;-56
2022/09/10 02:12:29;;;;;;;;;;;17.10;99.90;;;;;;4213305;28;20367;-57
2022/09/10 02:14:31;;;;;;;;;;;17.10;99.90;;;;;;4213285;28;20349;-57
2022/09/10 02:16:36;;;;;;;;;;;17.00;99.90;;;;;;4213301;28;20337;-56
2022/09/10 02:18:38;;;;;;;;;;;16.90;99.90;;;;;;4213101;28;19924;-56
2022/09/10 02:20:41;;;;;;;;;;;16.90;99.90;;;;;;4214971;28;20023;-56
2022/09/10 02:22:46;;;;;;;;;;;16.80;99.90;;;;;;4230046;28;19924;-56
2022/09/10 02:24:49;;;;;;;;;;;16.80;99.90;;;;;;4219072;28;19936;-56
2022/09/10 02:26:50;;;;;;;;;;;16.60;99.90;;;;;;4212972;28;19931;-55
2022/09/10 02:28:53;;;;;;;;;;;16.60;99.90;;;;;;4213364;28;19954;-56
2022/09/10 02:30:55;;;;;;;;;;;16.50;99.90;;;;;;4204825;28;20059;-56
2022/09/10 02:32:57;;;;;;;;;;;16.40;99.90;;;;;;4195863;28;20384;-56
2022/09/10 02:34:59;;;;;;;;;;;16.30;99.90;;;;;;4211895;28;20337;-56
2022/09/10 02:37:02;;;;;;;;;;;16.20;99.90;;;;;;4212647;28;20406;-57
2022/09/10 02:39:04;;;;;;;;;;;16.20;99.90;;;;;;4213119;28;20010;-56
2022/09/10 02:41:08;;;;;;;;;;;16.40;99.90;;;;;;4212740;28;19935;-56
2022/09/10 02:43:09;;;;;;;;;;;16.50;99.90;;;;;;4212215;28;20019;-57
2022/09/10 02:45:12;;;;;;;;;;;16.60;99.90;;;;;;4213084;28;19960;-56
2022/09/10 02:47:14;;;;;;;;;;;16.60;99.90;;;;;;4212083;28;19927;-56
2022/09/10 02:49:16;;;;;;;;;;;16.70;99.90;;;;;;4212834;28;20371;-56
2022/09/10 02:51:18;;;;;;;;;;;16.70;99.90;;;;;;4212627;28;19924;-56
2022/09/10 02:53:20;;;;;;;;;;;16.70;99.90;;;;;;4212777;28;20406;-56
2022/09/10 02:55:22;;;;;;;;;;;16.70;99.90;;;;;;4212467;28;19956;-56
2022/09/10 02:57:24;;;;;;;;;;;16.60;99.90;;;;;;4211105;28;19928;-56
2022/09/10 02:59:27;;;;;;;;;;;16.60;99.90;;;;;;4212626;28;19928;-56
2022/09/10 03:01:29;;;;;;;;;;;16.70;99.90;;;;;;4212719;28;19931;-56
2022/09/10 03:03:32;;;;;;;;;;;16.60;99.90;;;;;;4212478;28;20042;-56
2022/09/10 03:05:37;;;;;;;;;;;16.60;99.90;;;;;;4212374;28;20014;-56
2022/09/10 03:07:39;;;;;;;;;;;16.60;99.90;;;;;;4212440;28;20302;-56
2022/09/10 03:09:41;;;;;;;;;;;16.60;99.90;;;;;;4212631;28;19928;-56
2022/09/10 03:11:42;;;;;;;;;;;16.60;99.90;;;;;;4212306;28;19931;-56
2022/09/10 03:13:45;;;;;;;;;;;16.60;99.90;;;;;;4212521;28;19978;-55
2022/09/10 03:15:47;;;;;;;;;;;16.50;99.90;;;;;;4212197;28;20449;-56
2022/09/10 03:17:50;;;;;;;;;;;16.60;99.90;;;;;;4220739;28;20403;-57
2022/09/10 03:19:52;;;;;;;;;;;16.70;99.90;;;;;;4212226;28;20478;-56
2022/09/10 03:21:53;;;;;;;;;;;16.70;99.90;;;;;;4212359;28;19924;-56
2022/09/10 03:23:55;;;;;;;;;;;16.80;99.90;;;;;;4212289;28;19970;-56
2022/09/10 03:25:58;;;;;;;;;;;16.80;99.90;;;;;;4212181;28;19939;-56
2022/09/10 03:28:00;;;;;;;;;;;16.80;99.90;;;;;;4212100;28;19932;-57
2022/09/10 03:30:02;;;;;;;;;;;16.50;99.90;;;;;;4212512;28;19923;-55
2022/09/10 03:32:04;;;;;;;;;;;16.40;99.90;;;;;;4211850;28;20269;-56
2022/09/10 03:34:07;;;;;;;;;;;16.30;99.90;;;;;;4208730;28;20375;-56
2022/09/10 03:36:12;;;;;;;;;;;16.20;99.90;;;;;;4195736;28;19970;-57
2022/09/10 03:38:13;;;;;;;;;;;16.20;99.90;;;;;;4206751;28;20310;-56
2022/09/10 03:40:16;;;;;;;;;;;16.20;99.90;;;;;;4209321;28;19924;-56
2022/09/10 03:42:18;;;;;;;;;;;16.20;99.90;;;;;;4195645;28;19924;-56
2022/09/10 03:44:20;;;;;;;;;;;16.30;99.90;;;;;;4204421;28;20362;-56
2022/09/10 03:46:22;;;;;;;;;;;16.20;99.90;;;;;;4212426;28;19928;-56
2022/09/10 03:48:24;;;;;;;;;;;16.10;99.90;;;;;;4212012;28;20375;-56
2022/09/10 03:50:26;;;;;;;;;;;16.20;99.90;;;;;;4211891;28;19943;-57
2022/09/10 03:52:28;;;;;;;;;;;16.10;99.90;;;;;;4212421;28;19935;-56
2022/09/10 03:54:30;;;;;;;;;;;16.20;99.90;;;;;;4212242;28;20298;-56
2022/09/10 03:56:33;;;;;;;;;;;16.30;99.90;;;;;;4215291;28;20392;-57
2022/09/10 03:58:34;;;;;;;;;;;16.10;99.90;;;;;;4215599;28;19924;-55
2022/09/10 04:00:36;;;;;;;;;;;15.90;99.90;;;;;;4215515;28;19935;-55
2022/09/10 04:02:40;;;;;;;;;;;15.90;99.90;;;;;;4215598;28;19951;-57
2022/09/10 04:04:42;;;;;;;;;;;16.00;99.90;;;;;;4215870;28;20019;-56
2022/09/10 04:06:44;;;;;;;;;;;16.10;99.90;;;;;;4215587;28;20450;-55
2022/09/10 04:08:50;;;;;;;;;;;16.20;99.90;;;;;;4215253;28;19924;-57
2022/09/10 04:10:55;;;;;;;;;;;16.00;99.90;;;;;;4198938;28;20263;-56
2022/09/10 04:12:57;;;;;;;;;;;16.00;99.90;;;;;;4205047;28;19960;-56
2022/09/10 04:15:02;;;;;;;;;;;16.10;99.90;;;;;;4198496;28;20361;-55
2022/09/10 04:17:04;;;;;;;;;;;16.10;99.90;;;;;;4214263;28;19924;-56
2022/09/10 04:19:06;;;;;;;;;;;16.10;99.90;;;;;;4214812;28;19928;-56
2022/09/10 04:21:08;;;;;;;;;;;16.00;99.90;;;;;;4215372;28;19932;-55
2022/09/10 04:23:10;;;;;;;;;;;15.90;99.90;;;;;;4214977;28;19928;-56
2022/09/10 04:25:12;;;;;;;;;;;16.10;99.90;;;;;;4215260;28;19934;-56
2022/09/10 04:27:15;;;;;;;;;;;16.10;99.90;;;;;;4215055;28;19928;-56
2022/09/10 04:29:17;;;;;;;;;;;16.10;99.90;;;;;;4214760;28;20356;-56
2022/09/10 04:31:19;;;;;;;;;;;16.00;99.90;;;;;;4214959;28;19932;-55
2022/09/10 04:33:21;;;;;;;;;;;15.90;99.90;;;;;;4214360;28;20375;-56
2022/09/10 04:35:24;;;;;;;;;;;15.80;99.90;;;;;;4215000;28;19928;-56
2022/09/10 04:37:27;;;;;;;;;;;15.80;99.90;;;;;;4214969;28;19928;-56
2022/09/10 04:39:28;;;;;;;;;;;15.80;99.90;;;;;;4198026;28;20054;-56
2022/09/10 04:41:30;;;;;;;;;;;15.90;99.90;;;;;;4205033;28;20021;-56
2022/09/10 04:43:32;;;;;;;;;;;15.90;99.90;;;;;;4214749;28;19924;-56
2022/09/10 04:45:34;;;;;;;;;;;15.90;99.90;;;;;;4214352;28;19952;-56
2022/09/10 04:47:36;;;;;;;;;;;15.70;99.90;;;;;;4214793;28;19971;-56
2022/09/10 04:49:39;;;;;;;;;;;15.60;99.90;;;;;;4214545;28;19946;-56
2022/09/10 04:51:40;;;;;;;;;;;15.70;99.90;;;;;;4214542;28;20520;-55
2022/09/10 04:53:43;;;;;;;;;;;15.80;99.90;;;;;;4214616;28;19928;-56
2022/09/10 04:55:46;;;;;;;;;;;15.90;99.90;;;;;;4214254;28;19973;-56
2022/09/10 04:57:47;;;;;;;;;;;15.90;99.90;;;;;;4214683;28;19978;-55
2022/09/10 04:59:49;;;;;;;;;;;15.90;99.90;;;;;;4212811;28;20359;-56
2022/09/10 05:01:51;;;;;;;;;;;15.80;99.90;;;;;;4214416;28;19924;-56
2022/09/10 05:03:53;;;;;;;;;;;15.80;99.90;;;;;;4214140;28;20294;-55
2022/09/10 05:05:55;;;;;;;;;;;15.70;99.90;;;;;;4213905;28;19928;-55
2022/09/10 05:07:59;;;;;;;;;;;15.60;99.90;;;;;;4214708;28;19935;-56
2022/09/10 05:10:00;;;;;;;;;;;15.40;99.90;;;;;;4219573;28;19924;-56
2022/09/10 05:12:02;;;;;;;;;;;15.40;99.90;;;;;;4231392;27;19924;-55
2022/09/10 05:14:06;;;;;;;;;;;15.50;99.90;;;;;;4231313;28;19934;-55
2022/09/10 05:16:08;;;;;;;;;;;15.50;99.90;;;;;;4225331;27;19954;-56
2022/09/10 05:18:10;;;;;;;;;;;15.50;99.90;;;;;;4197570;28;19924;-57
2022/09/10 05:20:11;;;;;;;;;;;15.60;99.90;;;;;;4197945;28;20098;-56
2022/09/10 05:22:13;;;;;;;;;;;15.60;99.90;;;;;;4197390;28;20406;-56
2022/09/10 05:24:16;;;;;;;;;;;15.60;99.90;;;;;;4197545;28;19978;-56
2022/09/10 05:26:17;;;;;;;;;;;15.70;99.90;;;;;;4197607;28;20349;-56
2022/09/10 05:28:20;;;;;;;;;;;15.70;99.90;;;;;;4197291;28;20299;-56
2022/09/10 05:30:22;;;;;;;;;;;15.70;99.90;;;;;;4197479;28;20375;-56
2022/09/10 05:32:24;;;;;;;;;;;15.70;99.90;;;;;;4198103;28;20022;-56
2022/09/10 05:34:26;;;;;;;;;;;15.50;99.90;;;;;;4200445;28;20338;-56
2022/09/10 05:36:28;;;;;;;;;;;15.50;99.90;;;;;;4214118;28;20023;-56
2022/09/10 05:38:30;;;;;;;;;;;15.60;99.90;;;;;;4213900;28;19976;-56
2022/09/10 05:40:32;;;;;;;;;;;15.70;99.90;;;;;;4213297;28;19924;-56
2022/09/10 05:42:34;;;;;;;;;;;15.80;99.90;;;;;;4213271;28;19928;-56
2022/09/10 05:44:36;;;;;;;;;;;16.00;99.90;;;;;;4197049;28;19924;-56
2022/09/10 05:46:39;;;;;;;;;;;16.10;99.90;;;;;;4197871;28;19932;-57
2022/09/10 05:48:44;;;;;;;;;;;16.20;99.90;;;;;;4213896;28;19939;-55
2022/09/10 05:50:46;;;;;;;;;;;16.40;99.90;;;;;;4213569;28;19959;-57
2022/09/10 05:52:48;;;;;;;;;;;16.40;99.90;;;;;;4212933;28;19985;-58
2022/09/10 05:54:50;;;;;;;;;;;16.50;99.90;;;;;;4212472;28;20379;-58
2022/09/10 05:56:52;;;;;;;;;;;16.60;99.90;;;;;;4211015;28;19924;-57
2022/09/10 05:58:54;;;;;;;;;;;16.70;99.90;;;;;;4213110;28;20354;-58
2022/09/10 06:00:57;;;;;;;;;;;16.60;99.90;;;;;;4199929;28;19956;-58
2022/09/10 06:02:58;;;;;;;;;;;16.50;99.90;;;;;;4197484;28;19955;-57
2022/09/10 06:05:00;;;;;;;;;;;16.50;99.90;;;;;;4212778;28;20451;-58
2022/09/10 06:07:03;;;;;;;;;;;16.50;99.90;;;;;;4216236;28;19933;-57
2022/09/10 06:09:05;;;;;;;;;;;16.70;99.90;;;;;;4202799;28;19925;-57
2022/09/10 06:11:08;;;;;;;;;;;16.60;99.90;;;;;;4211538;28;20026;-58
2022/09/10 06:13:10;;;;;;;;;;;16.60;99.90;;;;;;4209807;28;19931;-57
2022/09/10 06:15:12;;;;;;;;;;;16.90;99.90;;;;;;4196911;28;20019;-58
2022/09/10 06:17:16;;;;;;;;;;;17.00;99.90;;;;;;4207875;28;20296;-58
2022/09/10 06:19:18;;;;;;;;;;;17.20;99.90;;;;;;4210761;28;20022;-59
2022/09/10 06:21:20;;;;;;;;;;;17.40;99.90;;;;;;4212800;28;19924;-57
2022/09/10 06:23:27;;;;;;;;;;;17.50;99.90;;;;;;4200984;28;20375;-58
2022/09/10 06:25:29;;;;;;;;;;;17.50;99.90;;;;;;4196258;28;20405;-58
2022/09/10 06:27:32;;;;;;;;;;;17.50;99.90;;;;;;4196309;28;19929;-58
2022/09/10 06:29:35;;;;;;;;;;;17.60;99.90;;;;;;4196368;28;19986;-58
2022/09/10 06:31:37;;;;;;;;;;;17.70;99.90;;;;;;4195937;28;20364;-59
2022/09/10 06:33:39;;;;;;;;;;;17.90;99.90;;;;;;4196214;28;20002;-57
2022/09/10 06:35:41;;;;;;;;;;;17.90;99.90;;;;;;4196536;28;20024;-58
2022/09/10 06:37:43;;;;;;;;;;;18.10;99.90;;;;;;4196271;28;20376;-57
2022/09/10 06:39:45;;;;;;;;;;;18.10;99.90;;;;;;4207897;28;19932;-57
2022/09/10 06:41:47;;;;;;;;;;;18.20;99.90;;;;;;4196215;28;19925;-59
2022/09/10 06:43:50;;;;;;;;;;;18.40;99.90;;;;;;4196258;28;19932;-58
2022/09/10 06:45:53;;;;;;;;;;;18.60;99.90;;;;;;4194449;28;19924;-58
2022/09/10 06:47:55;;;;;;;;;;;18.80;99.90;;;;;;4208003;28;19928;-58
2022/09/10 06:50:17;;;;;;;;;;;18.70;99.90;;;;;;4213136;28;20294;-59
2022/09/10 06:52:19;;;;;;;;;;;18.80;99.90;;;;;;4212758;28;20484;-58
2022/09/10 06:54:20;;;;;;;;;;;19.00;99.90;;;;;;4213054;28;19982;-58
2022/09/10 06:56:23;;;;;;;;;;;19.20;99.90;;;;;;4207119;28;19987;-57
2022/09/10 06:58:25;;;;;;;;;;;19.40;99.90;;;;;;4206980;28;19931;-57
2022/09/10 07:00:27;;;;;;;;;;;19.30;99.90;;;;;;4205006;28;20312;-57
2022/09/10 07:02:29;;;;;;;;;;;19.40;99.90;;;;;;4209652;28;20407;-58
2022/09/10 07:04:31;;;;;;;;;;;19.60;99.90;;;;;;4210913;28;19928;-57
2022/09/10 07:06:34;;;;;;;;;;;19.90;99.90;;;;;;4211271;28;19924;-58
2022/09/10 07:08:38;;;;;;;;;;;20.10;99.90;;;;;;4212370;28;19924;-57
2022/09/10 07:10:41;;;;;;;;;;;20.30;99.90;;;;;;4206098;28;20442;-57
2022/09/10 07:12:43;;;;;;;;;;;20.30;99.90;;;;;;4207300;28;19977;-57
2022/09/10 07:14:46;;;;;;;;;;;20.60;99.90;;;;;;4205086;28;19924;-59
2022/09/10 07:16:50;;;;;;;;;;;21.00;99.90;;;;;;4204771;28;20019;-58
2022/09/10 07:18:53;;;;;;;;;;;21.20;99.90;;;;;;4212246;28;20010;-58
2022/09/10 07:21:08;;;;;;;;;;;21.40;99.90;;;;;;4211138;28;19924;-59
2022/09/10 07:23:15;;;;;;;;;;;21.60;99.90;;;;;;4211529;28;19924;-58
2022/09/10 07:25:17;;;;;;;;;;;21.80;99.90;;;;;;4211337;28;19928;-59
2022/09/10 07:27:19;;;;;;;;;;;22.00;99.90;;;;;;4210459;28;20372;-59
2022/09/10 07:29:22;;;;;;;;;;;22.20;99.90;;;;;;4210478;28;20433;-59
2022/09/10 07:31:28;;;;;;;;;;;22.20;99.90;;;;;;4199790;28;19924;-58
2022/09/10 07:33:30;;;;;;;;;;;22.40;99.90;;;;;;4211160;28;20383;-58
2022/09/10 07:35:33;;;;;;;;;;;22.50;99.90;;;;;;4209475;28;19924;-58
2022/09/10 07:37:35;;;;;;;;;;;22.80;99.90;;;;;;4212285;28;20441;-57
2022/09/10 07:39:36;;;;;;;;;;;23.10;99.90;;;;;;4212213;28;19947;-58
2022/09/10 07:41:38;;;;;;;;;;;23.30;99.90;;;;;;4212139;28;19956;-58
2022/09/10 07:43:41;;;;;;;;;;;23.20;99.90;;;;;;4212702;28;19928;-57
2022/09/10 07:45:43;;;;;;;;;;;23.60;99.90;;;;;;4211928;28;19928;-57
2022/09/10 07:47:46;;;;;;;;;;;23.90;99.90;;;;;;4210475;28;19924;-58
2022/09/10 07:49:48;;;;;;;;;;;24.00;99.90;;;;;;4208797;28;19945;-58
2022/09/10 07:51:52;;;;;;;;;;;24.20;99.90;;;;;;4208589;28;20331;-58
2022/09/10 07:54:00;;;;;;;;;;;24.40;99.90;;;;;;4211293;28;19935;-59
2022/09/10 07:56:03;;;;;;;;;;;24.50;99.90;;;;;;4210283;28;20243;-58
2022/09/10 07:58:05;;;;;;;;;;;24.40;99.90;;;;;;4210398;28;19924;-58
2022/09/10 08:00:13;;;;;;;;;;;24.30;99.90;;;;;;4215777;28;20028;-58
2022/09/10 08:02:15;;;;;;;;;;;24.70;99.90;;;;;;4209605;28;20492;-57
2022/09/10 08:04:17;;;;;;;;;;;25.10;99.90;;;;;;4211595;28;20011;-58
2022/09/10 08:06:19;;;;;;;;;;;25.40;99.90;;;;;;4198950;28;19932;-58
2022/09/10 08:08:21;;;;;;;;;;;25.60;99.90;;;;;;4212116;28;19928;-58
2022/09/10 08:10:23;;;;;;;;;;;25.80;99.90;;;;;;4208495;28;19943;-57
2022/09/10 08:12:25;;;;;;;;;;;25.90;99.90;;;;;;4211987;28;19931;-58
2022/09/10 08:14:27;;;;;;;;;;;25.70;99.90;;;;;;4211661;28;19924;-58
2022/09/10 08:16:28;;;;;;;;;;;25.50;99.90;;;;;;4211815;28;19931;-58
2022/09/10 08:18:30;;;;;;;;;;;25.80;99.90;;;;;;4211652;28;20407;-58
2022/09/10 08:20:32;;;;;;;;;;;25.50;99.40;;;;;;4212151;28;20295;-58
2022/09/10 08:22:34;;;;;;;;;;;25.50;99.90;;;;;;4211984;28;19935;-58
2022/09/10 08:24:36;;;;;;;;;;;25.50;99.90;;;;;;4212183;28;19924;-58
2022/09/10 08:26:38;;;;;;;;;;;25.50;99.40;;;;;;4211845;28;19924;-57
2022/09/10 08:28:43;;;;;;;;;;;25.50;99.90;;;;;;4211126;28;20388;-59
2022/09/10 08:30:57;;;;;;;;;;;26.00;99.70;;;;;;4195073;28;19924;-57
2022/09/10 08:32:59;;;;;;;;;;;26.20;99.90;;;;;;4194935;28;20003;-59
2022/09/10 08:35:03;;;;;;;;;;;25.80;98.30;;;;;;4195048;28;19924;-58
2022/09/10 08:37:05;;;;;;;;;;;25.70;98.30;;;;;;4195373;28;19978;-57
2022/09/10 08:39:07;;;;;;;;;;;26.00;98.70;;;;;;4205996;28;19928;-58
2022/09/10 08:41:12;;;;;;;;;;;25.60;98.60;;;;;;4211159;28;19955;-57
2022/09/10 08:43:14;;;;;;;;;;;25.70;99.00;;;;;;4215025;28;19931;-57
2022/09/10 08:45:22;;;;;;;;;;;25.80;98.60;;;;;;4211911;28;19932;-58
2022/09/10 08:47:24;;;;;;;;;;;26.20;98.10;;;;;;4206795;28;19931;-58
2022/09/10 08:49:32;;;;;;;;;;;26.50;98.10;;;;;;4212677;28;19924;-60
2022/09/10 08:51:40;;;;;;;;;;;26.80;97.40;;;;;;4212439;28;20019;-59
2022/09/10 08:53:48;;;;;;;;;;;26.90;97.40;;;;;;4209713;28;20351;-59
2022/09/10 08:55:55;;;;;;;;;;;26.70;96.70;;;;;;4226010;27;20496;-59
2022/09/10 08:57:57;;;;;;;;;;;26.90;97.50;;;;;;4231130;28;19927;-58
2022/09/10 09:00:00;;;;;;;;;;;27.10;96.50;;;;;;4231334;27;20386;-58
2022/09/10 09:02:11;;;;;;;;;;;26.90;96.60;;;;;;4231121;27;19923;-59
2022/09/10 09:04:36;;;;;;;;;;;26.80;96.50;;;;;;4237072;27;19927;-58
2022/09/10 09:06:43;;;;;;;;;;;26.50;96.80;;;;;;4231357;28;20058;-58
2022/09/10 09:08:47;;;;;;;;;;;26.10;97.20;;;;;;4231303;28;19924;-59
2022/09/10 09:11:04;;;;;;;;;;;26.00;97.90;;;;;;4231186;27;19928;-60
2022/09/10 09:13:12;;;;;;;;;;;26.30;97.10;;;;;;4231289;27;19977;-60
2022/09/10 09:15:14;;;;;;;;;;;26.40;97.30;;;;;;4231119;27;19923;-58
2022/09/10 09:17:22;;;;;;;;;;;26.50;97.50;;;;;;4230880;28;19924;-58
2022/09/10 09:19:39;;;;;;;;;;;26.80;96.40;;;;;;4231220;28;20371;-58
2022/09/10 09:21:44;;;;;;;;;;;26.40;96.70;;;;;;4231145;28;20341;-57
2022/09/10 09:23:54;;;;;;;;;;;26.40;97.00;;;;;;4231139;27;19924;-57
2022/09/10 09:26:14;;;;;;;;;;;26.30;96.70;;;;;;4218863;28;19932;-58
2022/09/10 09:28:22;;;;;;;;;;;26.30;96.10;;;;;;4213928;28;19978;-57
2022/09/10 09:30:34;;;;;;;;;;;26.70;97.90;;;;;;4214191;28;20303;-58
2022/09/10 09:32:38;;;;;;;;;;;27.20;97.00;;;;;;4221844;28;19955;-58
2022/09/10 09:34:48;;;;;;;;;;;27.40;96.80;;;;;;4213499;28;20491;-61
2022/09/10 09:36:52;;;;;;;;;;;27.60;97.10;;;;;;4214031;28;19928;-65
2022/09/10 09:38:55;;;;;;;;;;;27.50;98.60;;;;;;4213537;28;20284;-65
2022/09/10 09:40:59;;;;;;;;;;;27.50;97.50;;;;;;4211185;28;19928;-63
2022/09/10 09:43:07;;;;;;;;;;;28.00;97.20;;;;;;4207389;28;20378;-65
2022/09/10 09:45:18;;;;;;;;;;;27.60;98.40;;;;;;4201751;28;19929;-64
2022/09/10 09:47:20;;;;;;;;;;;26.30;96.40;;;;;;4205284;28;19932;-62
2022/09/10 09:49:22;;;;;;;;;;;26.10;97.70;;;;;;4208733;28;19934;-64
2022/09/10 09:51:26;;;;;;;;;;;25.70;97.90;;;;;;4217069;28;20338;-63
2022/09/10 09:53:29;;;;;;;;;;;25.40;98.00;;;;;;4207962;28;19931;-62
2022/09/10 09:55:32;;;;;;;;;;;25.70;98.30;;;;;;4206547;28;20380;-63
2022/09/10 09:57:34;;;;;;;;;;;25.70;98.00;;;;;;4206566;28;20328;-64
2022/09/10 09:59:36;;;;;;;;;;;25.60;97.70;;;;;;4206259;28;19931;-64
2022/09/10 10:01:39;;;;;;;;;;;25.60;99.20;;;;;;4209826;28;19924;-64
2022/09/10 10:03:41;;;;;;;;;;;25.40;98.30;;;;;;4207901;28;20646;-64
2022/09/10 10:05:43;;;;;;;;;;;25.40;98.60;;;;;;4209525;28;20741;-63
2022/09/10 10:07:46;;;;;;;;;;;25.10;98.90;;;;;;4205922;28;19970;-63
2022/09/10 10:09:49;;;;;;;;;;;25.20;98.60;;;;;;4205745;28;19963;-62
2022/09/10 10:11:53;;;;;;;;;;;25.30;98.10;;;;;;4208653;28;19934;-64
2022/09/10 10:14:10;;;;;;;;;;;24.90;98.30;;;;;;4200922;28;19931;-63
2022/09/10 10:16:17;;;;;;;;;;;24.90;98.50;;;;;;4211881;28;19924;-64
2022/09/10 10:18:23;;;;;;;;;;;25.00;99.40;;;;;;4208788;27;19932;-63
2022/09/10 10:20:34;;;;;;;;;;;24.90;99.10;;;;;;4210434;28;19924;-62
2022/09/10 10:22:37;;;;;;;;;;;24.80;99.40;;;;;;4205542;28;20386;-64
2022/09/10 10:24:44;;;;;;;;;;;24.60;99.00;;;;;;4202480;28;20330;-65
2022/09/10 10:26:47;;;;;;;;;;;24.60;99.70;;;;;;4197277;28;20422;-63
2022/09/10 10:28:50;;;;;;;;;;;24.70;99.40;;;;;;4209163;28;19928;-62
2022/09/10 10:30:53;;;;;;;;;;;24.70;99.90;;;;;;4204304;28;19932;-63
2022/09/10 10:32:58;;;;;;;;;;;24.80;99.90;;;;;;4206000;28;19924;-63
2022/09/10 10:35:17;;;;;;;;;;;24.80;99.80;;;;;;4209283;28;19935;-65
2022/09/10 10:37:19;;;;;;;;;;;24.80;99.90;;;;;;4195357;28;19929;-64
2022/09/10 10:39:23;;;;;;;;;;;24.80;99.30;;;;;;4203416;28;20267;-63
2022/09/10 10:41:25;;;;;;;;;;;24.80;98.80;;;;;;4210413;28;19924;-64
2022/09/10 10:43:36;;;;;;;;;;;25.00;99.60;;;;;;4212778;28;19927;-64
2022/09/10 10:45:56;;;;;;;;;;;25.20;98.40;;;;;;4212099;28;20390;-64
2022/09/10 10:48:08;;;;;;;;;;;25.80;98.00;;;;;;4204728;28;19924;-64
2022/09/10 10:50:29;;;;;;;;;;;26.40;97.10;;;;;;4204680;28;19935;-64
2022/09/10 10:52:50;;;;;;;;;;;26.80;96.50;;;;;;4206276;28;19933;-64
2022/09/10 10:55:10;;;;;;;;;;;27.30;96.50;;;;;;4199433;28;19932;-63
2022/09/10 10:57:31;;;;;;;;;;;27.30;95.80;;;;;;4196148;28;19939;-64
2022/09/10 10:59:52;;;;;;;;;;;27.50;94.80;;;;;;4210687;28;20027;-64
2022/09/10 11:02:01;;;;;;;;;;;27.40;94.90;;;;;;4216925;28;19989;-64
2022/09/10 11:04:21;;;;;;;;;;;27.60;95.40;;;;;;4211274;28;19931;-64
2022/09/10 11:06:26;;;;;;;;;;;27.80;93.20;;;;;;4211882;28;20403;-63
2022/09/10 11:08:30;;;;;;;;;;;28.20;94.80;;;;;;4208122;28;19935;-64
2022/09/10 11:10:38;;;;;;;;;;;27.80;97.10;;;;;;4206435;28;19976;-63
2022/09/10 11:12:46;;;;;;;;;;;27.30;97.20;;;;;;4207643;28;19930;-64
2022/09/10 11:14:54;;;;;;;;;;;27.30;97.50;;;;;;4204538;28;19931;-64
2022/09/10 11:17:08;;;;;;;;;;;27.00;98.20;;;;;;4206230;28;19963;-64
2022/09/10 11:19:10;;;;;;;;;;;26.40;98.80;;;;;;4209993;28;20414;-62
2022/09/10 11:21:32;;;;;;;;;;;26.40;99.60;;;;;;4209749;28;20033;-63
2022/09/10 11:23:37;;;;;;;;;;;26.40;99.70;;;;;;4211324;28;19928;-65
2022/09/10 11:25:49;;;;;;;;;;;26.20;99.90;;;;;;4211060;28;19924;-64
2022/09/10 11:27:54;;;;;;;;;;;26.30;99.80;;;;;;4209784;28;19928;-64
2022/09/10 11:29:56;;;;;;;;;;;26.70;99.80;;;;;;4211485;28;19936;-65
2022/09/10 11:31:59;;;;;;;;;;;26.80;99.30;;;;;;4211270;28;19928;-65
2022/09/10 11:34:04;;;;;;;;;;;26.80;99.10;;;;;;4211416;28;19934;-66
2022/09/10 11:36:08;;;;;;;;;;;26.90;99.40;;;;;;4211184;28;19924;-62
2022/09/10 11:38:13;;;;;;;;;;;27.20;99.30;;;;;;4211900;28;19960;-65
2022/09/10 11:40:18;;;;;;;;;;;27.00;99.00;;;;;;4211511;28;20443;-65
2022/09/10 11:42:20;;;;;;;;;;;26.80;98.40;;;;;;4208337;28;19997;-66
2022/09/10 11:44:30;;;;;;;;;;;26.70;99.10;;;;;;4217774;28;20419;-63
2022/09/10 11:46:42;;;;;;;;;;;26.80;99.20;;;;;;4215489;28;19996;-66
2022/09/10 11:49:02;;;;;;;;;;;26.50;98.60;;;;;;4211496;28;19935;-64
2022/09/10 11:51:10;;;;;;;;;;;26.70;98.90;;;;;;4211908;28;20353;-66
2022/09/10 11:53:14;;;;;;;;;;;27.00;96.70;;;;;;4211564;28;19931;-64
2022/09/10 11:55:16;;;;;;;;;;;27.30;96.30;;;;;;4211414;28;19927;-64
2022/09/10 11:57:21;;;;;;;;;;;27.60;95.50;;;;;;4211316;28;20307;-64
2022/09/10 11:59:41;;;;;;;;;;;27.80;96.30;;;;;;4208901;28;19951;-66
2022/09/10 12:01:59;;;;;;;;;;;27.80;95.90;;;;;;4210569;28;20228;-66
2022/09/10 12:04:17;;;;;;;;;;;27.60;95.50;;;;;;4209703;28;19961;-65